Time;durP1;ratioP1;P1;durP2;ratioP2;P2;SDS_P1;SDS_P2;PMS_P1;PMS_P2;Temp;Humidity;BMP_temperature;BMP_pressure;BME280_temperature;BME280_humidity;BME280_pressure;Samples;Min_cycle;Max_cycle;Signal;HPM_P1;HPM_P2
2021/05/03 00:01:59;;;;;;;8.18;6.90;;;5.00;82.70;;;;;;5198406;28;20411;-69
2021/05/03 00:04:31;;;;;;;7.22;6.25;;;5.10;82.60;;;;;;5199543;28;20034;-70
2021/05/03 00:07:02;;;;;;;7.70;6.55;;;5.10;83.10;;;;;;5202458;28;20041;-68
2021/05/03 00:09:34;;;;;;;7.55;6.57;;;5.20;82.10;;;;;;5191389;28;20046;-70
2021/05/03 00:12:06;;;;;;;8.45;7.20;;;5.20;81.90;;;;;;5186950;28;20049;-69
2021/05/03 00:14:37;;;;;;;7.30;6.60;;;5.20;81.80;;;;;;5197889;28;20092;-68
2021/05/03 00:17:09;;;;;;;7.95;6.72;;;5.30;81.60;;;;;;5203012;28;20038;-69
2021/05/03 00:19:43;;;;;;;7.43;6.35;;;5.20;81.20;;;;;;5196982;28;20045;-70
2021/05/03 00:22:14;;;;;;;7.43;6.40;;;5.20;81.70;;;;;;5196353;28;20432;-69
2021/05/03 00:24:46;;;;;;;7.07;6.20;;;5.20;82.00;;;;;;5201594;28;20045;-71
2021/05/03 00:27:17;;;;;;;7.60;6.53;;;5.10;81.60;;;;;;5197951;28;20042;-69
2021/05/03 00:29:49;;;;;;;7.90;7.07;;;5.20;81.90;;;;;;5196847;28;20782;-70
2021/05/03 00:32:20;;;;;;;7.15;6.20;;;5.20;82.10;;;;;;5198536;28;20068;-71
2021/05/03 00:34:52;;;;;;;7.45;6.65;;;5.30;82.10;;;;;;5204190;28;20053;-71
2021/05/03 00:37:24;;;;;;;7.68;6.25;;;5.30;81.70;;;;;;5193399;28;20049;-70
2021/05/03 00:39:55;;;;;;;7.47;6.40;;;5.40;81.30;;;;;;5195024;28;20052;-70
2021/05/03 00:42:27;;;;;;;6.93;6.00;;;5.40;81.40;;;;;;5197492;28;20041;-70
2021/05/03 00:45:06;;;;;;;7.68;6.88;;;5.30;82.10;;;;;;5194545;28;20065;-70
2021/05/03 00:47:39;;;;;;;7.13;6.22;;;5.20;82.70;;;;;;5197221;28;20695;-70
2021/05/03 00:50:12;;;;;;;8.00;6.45;;;5.30;82.40;;;;;;5196312;28;20124;-70
2021/05/03 00:52:45;;;;;;;7.05;6.20;;;5.30;82.30;;;;;;5198242;28;20124;-70
2021/05/03 00:55:17;;;;;;;7.60;6.53;;;5.30;82.10;;;;;;5198066;28;20045;-70
2021/05/03 00:57:48;;;;;;;7.35;6.22;;;5.30;82.20;;;;;;5198235;28;20053;-70
2021/05/03 01:00:22;;;;;;;7.45;6.32;;;5.20;82.30;;;;;;5180261;28;20049;-70
2021/05/03 01:02:54;;;;;;;8.00;6.78;;;5.20;82.30;;;;;;5190455;28;20603;-69
2021/05/03 01:05:30;;;;;;;7.28;6.57;;;5.10;82.50;;;;;;5197868;28;20511;-70
2021/05/03 01:08:03;;;;;;;7.53;6.70;;;5.00;83.10;;;;;;5198123;28;20073;-69
2021/05/03 01:10:34;;;;;;;7.82;6.78;;;5.00;83.40;;;;;;5186672;28;20060;-71
2021/05/03 01:13:06;;;;;;;8.48;7.03;;;5.00;83.70;;;;;;5197849;28;20126;-69
2021/05/03 01:15:37;;;;;;;7.55;6.75;;;4.90;83.70;;;;;;5197122;28;20053;-68
2021/05/03 01:18:09;;;;;;;7.95;6.97;;;5.00;83.70;;;;;;5197945;28;20053;-69
2021/05/03 01:20:40;;;;;;;7.72;6.93;;;4.90;83.90;;;;;;5196964;28;20254;-69
2021/05/03 01:23:12;;;;;;;8.40;7.18;;;4.90;83.60;;;;;;5196330;28;20115;-69
2021/05/03 01:25:43;;;;;;;7.65;6.75;;;5.00;83.80;;;;;;5197266;28;20061;-69
2021/05/03 01:28:15;;;;;;;7.90;6.75;;;5.00;83.90;;;;;;5197948;28;20130;-69
2021/05/03 01:30:49;;;;;;;7.93;6.95;;;5.00;83.70;;;;;;5196608;28;20345;-69
2021/05/03 01:33:20;;;;;;;8.35;7.30;;;4.90;83.70;;;;;;5197057;28;20080;-69
2021/05/03 01:35:52;;;;;;;7.93;7.13;;;4.90;83.80;;;;;;5196855;28;20060;-69
2021/05/03 01:38:23;;;;;;;9.68;7.13;;;4.80;83.60;;;;;;5197987;28;20148;-69
2021/05/03 01:40:55;;;;;;;7.72;6.93;;;4.80;83.50;;;;;;5196679;28;20092;-69
2021/05/03 01:43:27;;;;;;;8.35;7.45;;;4.90;83.20;;;;;;5196393;28;20049;-69
2021/05/03 01:46:00;;;;;;;8.02;7.18;;;4.90;82.90;;;;;;5196930;28;20053;-69
2021/05/03 01:48:32;;;;;;;8.65;7.47;;;4.80;83.40;;;;;;5196106;28;20064;-72
2021/05/03 01:51:06;;;;;;;9.18;7.60;;;4.80;83.50;;;;;;5195636;28;20399;-69
2021/05/03 01:53:38;;;;;;;8.07;7.20;;;4.90;83.30;;;;;;5191779;28;20060;-69
2021/05/03 01:56:10;;;;;;;8.70;7.80;;;4.90;82.90;;;;;;5193918;28;20605;-69
2021/05/03 01:58:42;;;;;;;8.38;7.47;;;4.90;82.90;;;;;;5183319;28;20467;-69
2021/05/03 02:01:13;;;;;;;9.02;8.05;;;4.80;83.00;;;;;;5197071;28;20713;-70
2021/05/03 02:03:45;;;;;;;8.73;7.82;;;4.80;83.10;;;;;;5190694;28;20099;-69
2021/05/03 02:06:17;;;;;;;8.40;7.18;;;4.90;82.80;;;;;;5194653;28;20111;-70
2021/05/03 02:08:49;;;;;;;8.20;7.28;;;4.90;82.80;;;;;;5197782;28;20049;-69
2021/05/03 02:11:20;;;;;;;7.90;7.10;;;4.90;82.70;;;;;;5188599;28;20076;-69
2021/05/03 02:13:52;;;;;;;8.10;7.30;;;4.90;82.40;;;;;;5215758;28;20041;-69
2021/05/03 02:16:23;;;;;;;8.43;7.53;;;4.90;82.70;;;;;;5184267;28;20190;-69
2021/05/03 02:18:55;;;;;;;7.93;7.13;;;4.90;82.40;;;;;;5196729;28;20056;-69
2021/05/03 02:21:26;;;;;;;8.70;7.80;;;4.90;82.20;;;;;;5195851;28;20041;-68
2021/05/03 02:23:58;;;;;;;9.25;8.13;;;5.00;82.20;;;;;;5196605;28;20107;-69
2021/05/03 02:26:29;;;;;;;9.48;8.10;;;5.00;82.10;;;;;;5211375;28;20068;-69
2021/05/03 02:29:00;;;;;;;8.10;7.30;;;5.00;82.10;;;;;;5195812;28;20635;-70
2021/05/03 02:31:32;;;;;;;8.40;7.50;;;5.00;83.10;;;;;;5196020;28;20038;-70
2021/05/03 02:34:03;;;;;;;9.43;7.22;;;5.00;83.00;;;;;;5197068;28;20093;-70
2021/05/03 02:36:35;;;;;;;8.70;7.40;;;5.00;82.50;;;;;;5196701;28;20123;-70
2021/05/03 02:39:06;;;;;;;8.27;7.47;;;5.00;82.30;;;;;;5196034;28;20577;-69
2021/05/03 02:41:38;;;;;;;8.77;7.72;;;4.90;82.60;;;;;;5192954;28;20068;-68
2021/05/03 02:44:09;;;;;;;8.73;7.78;;;4.90;82.90;;;;;;5196826;28;20111;-69
2021/05/03 02:46:41;;;;;;;8.65;7.75;;;4.90;82.90;;;;;;5197120;28;20048;-69
2021/05/03 02:49:12;;;;;;;9.18;8.20;;;4.90;82.70;;;;;;5201255;28;20101;-70
2021/05/03 02:51:44;;;;;;;9.02;8.07;;;4.90;82.80;;;;;;5215651;28;20115;-70
2021/05/03 02:54:15;;;;;;;8.60;7.68;;;4.90;83.10;;;;;;5199298;28;20077;-70
2021/05/03 02:56:46;;;;;;;8.52;7.63;;;4.90;82.80;;;;;;5200079;28;20059;-72
2021/05/03 02:59:18;;;;;;;8.55;7.15;;;4.90;82.50;;;;;;5199675;28;20045;-70
2021/05/03 03:01:49;;;;;;;9.05;7.90;;;5.00;82.50;;;;;;5187244;28;20515;-71
2021/05/03 03:04:21;;;;;;;8.63;7.80;;;4.90;83.70;;;;;;5205058;28;21229;-70
2021/05/03 03:06:52;;;;;;;9.80;8.80;;;5.00;82.40;;;;;;5215192;28;20041;-69
2021/05/03 03:09:24;;;;;;;8.60;7.70;;;5.00;82.00;;;;;;5201143;28;20045;-70
2021/05/03 03:11:58;;;;;;;8.93;8.02;;;5.10;82.10;;;;;;5198813;28;20064;-70
2021/05/03 03:14:29;;;;;;;10.15;8.50;;;5.10;82.50;;;;;;5209418;28;20080;-70
2021/05/03 03:17:01;;;;;;;8.80;7.90;;;5.00;82.50;;;;;;5200077;28;20049;-70
2021/05/03 03:19:37;;;;;;;8.75;7.85;;;5.00;82.90;;;;;;5194896;28;20041;-71
2021/05/03 03:22:09;;;;;;;9.50;8.55;;;5.00;82.90;;;;;;5202662;28;20107;-70
2021/05/03 03:24:41;;;;;;;8.95;7.88;;;5.00;82.40;;;;;;5199031;28;20045;-70
2021/05/03 03:27:13;;;;;;;8.88;7.97;;;5.00;82.80;;;;;;5199777;28;20567;-69
2021/05/03 03:29:45;;;;;;;10.00;8.50;;;4.90;83.00;;;;;;5199428;28;20273;-70
2021/05/03 03:32:17;;;;;;;8.98;8.07;;;4.90;82.70;;;;;;5199808;28;20601;-70
2021/05/03 03:34:55;;;;;;;9.20;8.27;;;4.80;82.70;;;;;;5199308;28;20061;-70
2021/05/03 03:37:26;;;;;;;9.77;8.77;;;4.80;83.00;;;;;;5199701;28;20080;-69
2021/05/03 03:39:58;;;;;;;9.57;8.60;;;4.70;83.30;;;;;;5199649;28;20046;-69
2021/05/03 03:42:29;;;;;;;9.68;8.68;;;4.70;83.30;;;;;;5198329;28;20157;-69
2021/05/03 03:45:01;;;;;;;9.95;8.93;;;4.80;83.20;;;;;;5199520;28;20041;-69
2021/05/03 03:47:33;;;;;;;9.90;8.90;;;4.70;83.40;;;;;;5200058;28;20158;-70
2021/05/03 03:50:05;;;;;;;9.57;8.32;;;4.80;83.00;;;;;;5198429;28;20111;-70
2021/05/03 03:52:37;;;;;;;10.13;8.98;;;4.70;83.20;;;;;;5198956;28;20053;-71
2021/05/03 03:55:09;;;;;;;10.20;9.13;;;4.80;83.20;;;;;;5186710;28;20052;-70
2021/05/03 03:57:41;;;;;;;10.02;9.02;;;4.70;83.60;;;;;;5200244;28;20053;-70
2021/05/03 04:00:13;;;;;;;10.23;9.23;;;4.80;83.20;;;;;;5199436;28;20365;-69
2021/05/03 04:02:48;;;;;;;10.02;9.02;;;4.80;82.80;;;;;;5199127;28;20061;-69
2021/05/03 04:25:31;;;;;;;11.43;9.63;;;4.60;83.60;;;;;;5198288;28;20053;-70
2021/05/03 04:28:03;;;;;;;10.55;9.45;;;4.70;83.20;;;;;;5199302;28;20069;-71
2021/05/03 04:30:36;;;;;;;10.45;9.13;;;4.70;82.80;;;;;;5198332;28;20041;-69
2021/05/03 04:33:07;;;;;;;10.05;9.05;;;4.80;82.30;;;;;;5198529;28;20396;-69
2021/05/03 04:35:39;;;;;;;10.27;9.27;;;4.70;82.70;;;;;;5197715;28;20537;-69
2021/05/03 04:38:10;;;;;;;10.52;9.52;;;4.80;82.00;;;;;;5180959;28;20063;-68
2021/05/03 04:40:44;;;;;;;10.77;9.68;;;4.80;82.00;;;;;;5214249;28;20041;-69
2021/05/03 04:43:15;;;;;;;10.45;9.32;;;4.80;82.40;;;;;;5198300;28;20441;-69
2021/05/03 04:45:47;;;;;;;10.40;9.40;;;4.80;82.30;;;;;;5197213;28;20085;-70
2021/05/03 04:48:18;;;;;;;10.32;9.32;;;4.80;82.30;;;;;;5178743;28;20053;-70
2021/05/03 04:50:50;;;;;;;10.95;9.85;;;4.70;83.30;;;;;;5183638;28;20045;-68
2021/05/03 04:53:23;;;;;;;11.63;9.70;;;4.70;83.00;;;;;;5196079;28;20108;-68
2021/05/03 04:55:54;;;;;;;11.07;9.98;;;4.70;82.80;;;;;;5197642;28;20101;-68
2021/05/03 04:58:26;;;;;;;10.60;9.50;;;4.80;82.60;;;;;;5186220;28;20578;-68
2021/05/03 05:00:57;;;;;;;10.05;8.88;;;4.80;81.90;;;;;;5193313;28;20041;-69
2021/05/03 05:03:28;;;;;;;10.45;9.32;;;4.90;81.70;;;;;;5197028;28;20049;-69
2021/05/03 05:06:00;;;;;;;9.90;8.90;;;5.00;81.50;;;;;;5197399;28;20049;-69
2021/05/03 05:08:31;;;;;;;10.27;9.18;;;5.00;81.80;;;;;;5196542;28;20071;-70
2021/05/03 05:11:03;;;;;;;13.35;9.25;;;5.00;81.80;;;;;;5196117;28;20079;-71
2021/05/03 05:13:35;;;;;;;10.63;8.55;;;4.90;82.20;;;;;;5197509;28;20053;-69
2021/05/03 05:16:06;;;;;;;9.82;8.82;;;5.00;82.20;;;;;;5197235;28;20049;-68
2021/05/03 05:18:38;;;;;;;9.32;8.32;;;5.10;82.10;;;;;;5197428;28;20125;-71
2021/05/03 05:21:09;;;;;;;10.48;9.38;;;5.10;81.50;;;;;;5196158;28;20080;-70
2021/05/03 05:23:41;;;;;;;8.75;7.88;;;5.10;81.30;;;;;;5195813;28;20041;-68
2021/05/03 05:26:12;;;;;;;9.73;8.80;;;5.10;81.50;;;;;;5182110;28;20049;-68
2021/05/03 05:28:44;;;;;;;9.75;8.75;;;5.10;81.00;;;;;;5197817;28;20593;-68
2021/05/03 05:31:15;;;;;;;10.13;8.85;;;5.30;81.30;;;;;;5196735;28;20099;-70
2021/05/03 05:33:47;;;;;;;10.05;8.93;;;5.30;80.20;;;;;;5192228;28;20053;-68
2021/05/03 05:36:18;;;;;;;10.57;9.48;;;5.40;80.40;;;;;;5193085;28;20063;-68
2021/05/03 05:38:49;;;;;;;10.13;9.13;;;5.50;80.10;;;;;;5180846;28;20085;-68
2021/05/03 05:41:21;;;;;;;10.20;9.13;;;5.60;80.50;;;;;;5193817;28;20049;-71
2021/05/03 05:43:53;;;;;;;10.40;9.40;;;5.80;79.20;;;;;;5197627;28;20042;-68
2021/05/03 05:46:24;;;;;;;10.90;9.80;;;5.90;79.60;;;;;;5185346;28;20531;-68
2021/05/03 05:48:56;;;;;;;11.45;10.25;;;6.10;79.10;;;;;;5193962;28;20053;-68
2021/05/03 05:51:27;;;;;;;10.57;9.57;;;6.30;79.10;;;;;;5195029;28;20049;-68
2021/05/03 05:53:59;;;;;;;11.00;10.00;;;6.20;78.20;;;;;;5193410;28;20049;-68
2021/05/03 05:56:30;;;;;;;11.50;10.40;;;6.30;79.50;;;;;;5197209;28;20069;-68
2021/05/03 05:59:02;;;;;;;14.88;12.18;;;6.40;79.20;;;;;;5196286;28;20153;-68
2021/05/03 06:01:34;;;;;;;12.25;11.05;;;6.50;79.00;;;;;;5195655;28;20064;-69
2021/05/03 06:04:06;;;;;;;10.40;9.40;;;6.60;79.70;;;;;;5197279;28;20064;-67
2021/05/03 06:06:37;;;;;;;15.43;13.43;;;6.80;78.50;;;;;;5197070;28;20077;-68
2021/05/03 06:09:09;;;;;;;11.40;10.20;;;6.90;78.50;;;;;;5196829;28;20526;-68
2021/05/03 06:11:40;;;;;;;10.57;9.57;;;6.90;78.70;;;;;;5195621;28;20056;-68
2021/05/03 06:14:12;;;;;;;10.77;9.77;;;6.80;78.10;;;;;;5196964;28;20483;-68
2021/05/03 06:16:43;;;;;;;11.10;10.00;;;6.90;76.20;;;;;;5191438;28;20054;-68
2021/05/03 06:19:15;;;;;;;12.05;10.85;;;7.00;76.60;;;;;;5198141;28;20048;-68
2021/05/03 06:21:46;;;;;;;11.30;10.20;;;7.10;77.10;;;;;;5192264;28;20426;-69
2021/05/03 06:24:17;;;;;;;10.73;9.73;;;7.20;78.10;;;;;;5201122;28;20069;-68
2021/05/03 06:26:49;;;;;;;10.20;9.20;;;7.30;77.90;;;;;;5201734;28;20061;-70
2021/05/03 06:29:21;;;;;;;11.00;9.90;;;7.10;78.10;;;;;;5201610;28;20045;-68
2021/05/03 06:31:53;;;;;;;11.48;10.27;;;7.10;78.00;;;;;;5201403;28;20053;-68
2021/05/03 06:34:29;;;;;;;11.60;10.38;;;7.20;78.60;;;;;;5198749;28;20041;-68
2021/05/03 06:37:01;;;;;;;10.70;9.60;;;7.20;77.80;;;;;;5197992;28;20494;-68
2021/05/03 06:39:32;;;;;;;10.68;9.68;;;7.30;76.10;;;;;;5201655;28;20077;-69
2021/05/03 06:42:05;;;;;;;11.23;10.13;;;7.30;76.50;;;;;;5198819;28;20048;-69
2021/05/03 06:44:36;;;;;;;10.52;9.48;;;7.30;76.60;;;;;;5200711;28;20049;-68
2021/05/03 06:47:12;;;;;;;10.60;9.50;;;7.40;77.60;;;;;;5201160;28;20064;-68
2021/05/03 06:49:44;;;;;;;11.55;10.45;;;7.60;75.80;;;;;;5200341;28;20033;-68
2021/05/03 06:52:16;;;;;;;15.27;12.40;;;7.80;76.10;;;;;;5199437;28;20415;-69
2021/05/03 06:54:49;;;;;;;13.60;11.65;;;8.00;74.30;;;;;;5190664;28;20073;-68
2021/05/03 06:57:20;;;;;;;14.05;12.48;;;8.30;75.30;;;;;;5181863;28;20079;-68
2021/05/03 06:59:52;;;;;;;13.02;10.43;;;8.50;74.60;;;;;;5200923;28;20135;-68
2021/05/03 07:02:24;;;;;;;12.35;11.15;;;8.70;72.20;;;;;;5199918;28;20644;-69
2021/05/03 07:04:56;;;;;;;11.43;10.25;;;8.80;74.10;;;;;;5201299;28;20099;-68
2021/05/03 07:07:27;;;;;;;11.82;10.43;;;9.10;71.40;;;;;;5197349;28;20045;-67
2021/05/03 07:09:59;;;;;;;11.15;10.00;;;9.20;68.40;;;;;;5194240;28;20052;-68
2021/05/03 07:12:32;;;;;;;10.80;9.80;;;9.30;64.80;;;;;;5200434;28;20411;-69
2021/05/03 07:15:04;;;;;;;10.30;9.30;;;9.30;66.20;;;;;;5199517;28;20420;-68
2021/05/03 07:17:36;;;;;;;11.15;10.05;;;9.60;64.00;;;;;;5200914;28;20041;-70
2021/05/03 07:20:09;;;;;;;10.52;9.52;;;9.60;66.00;;;;;;5200446;28;20051;-69
2021/05/03 07:22:41;;;;;;;10.25;9.25;;;9.40;65.90;;;;;;5199138;28;20049;-70
2021/05/03 07:25:13;;;;;;;10.23;9.23;;;9.40;63.70;;;;;;5199210;28;20049;-68
2021/05/03 07:27:45;;;;;;;10.35;9.35;;;9.40;62.20;;;;;;5198711;28;20387;-68
2021/05/03 07:30:17;;;;;;;10.48;9.38;;;9.60;67.60;;;;;;5200126;28;20041;-70
2021/05/03 07:32:48;;;;;;;10.43;9.43;;;9.60;62.60;;;;;;5200985;28;20494;-68
2021/05/03 07:35:20;;;;;;;10.73;9.73;;;9.90;66.10;;;;;;5207502;28;20511;-68
2021/05/03 07:37:52;;;;;;;10.43;9.52;;;10.10;64.80;;;;;;5200342;28;20888;-68
2021/05/03 07:40:23;;;;;;;9.65;8.75;;;10.40;60.50;;;;;;5205759;28;20057;-68
2021/05/03 07:42:55;;;;;;;10.30;9.30;;;10.40;63.40;;;;;;5199311;28;20068;-68
2021/05/03 07:45:27;;;;;;;11.40;9.48;;;10.30;61.70;;;;;;5200038;28;20558;-68
2021/05/03 07:47:59;;;;;;;10.98;9.98;;;10.20;64.60;;;;;;5190039;28;20050;-68
2021/05/03 07:50:31;;;;;;;11.70;10.13;;;10.40;64.50;;;;;;5199939;28;20138;-68
2021/05/03 07:53:04;;;;;;;10.80;9.75;;;10.70;64.30;;;;;;5198241;28;20038;-68
2021/05/03 07:55:36;;;;;;;10.95;9.80;;;10.90;63.80;;;;;;5198557;28;20179;-68
2021/05/03 07:58:10;;;;;;;10.43;9.48;;;11.20;63.30;;;;;;5199747;28;20052;-67
2021/05/03 08:00:42;;;;;;;9.85;8.95;;;11.30;60.90;;;;;;5199111;28;20045;-68
2021/05/03 08:03:13;;;;;;;10.07;9.18;;;11.50;59.50;;;;;;5219080;28;20392;-68
2021/05/03 08:05:45;;;;;;;10.10;9.13;;;11.40;56.80;;;;;;5200065;28;20081;-68
2021/05/03 08:08:16;;;;;;;10.90;9.82;;;11.50;54.60;;;;;;5199907;28;20548;-69
2021/05/03 08:10:48;;;;;;;10.63;9.63;;;11.40;59.40;;;;;;5199936;28;20046;-68
2021/05/03 08:13:19;;;;;;;10.23;9.23;;;11.70;59.00;;;;;;5194714;28;20478;-68
2021/05/03 08:15:51;;;;;;;10.40;9.40;;;11.60;54.10;;;;;;5189937;28;20107;-68
2021/05/03 08:18:23;;;;;;;10.50;9.52;;;11.40;46.60;;;;;;5200211;28;20049;-67
2021/05/03 08:20:57;;;;;;;10.52;9.63;;;11.00;49.20;;;;;;5194465;28;20041;-67
2021/05/03 08:23:29;;;;;;;9.55;8.55;;;10.90;48.50;;;;;;5199888;28;20793;-67
2021/05/03 08:26:01;;;;;;;9.73;8.85;;;11.00;52.30;;;;;;5198540;28;20046;-68
2021/05/03 08:28:32;;;;;;;10.07;9.07;;;11.10;50.20;;;;;;5199939;28;20064;-72
2021/05/03 08:31:04;;;;;;;9.98;9.07;;;11.00;53.20;;;;;;5193347;28;20125;-68
2021/05/03 08:33:35;;;;;;;9.48;8.57;;;10.70;49.30;;;;;;5198623;28;20052;-68
2021/05/03 08:36:07;;;;;;;9.88;9.00;;;10.70;48.60;;;;;;5197161;28;20072;-68
2021/05/03 08:38:39;;;;;;;9.57;8.68;;;10.80;46.90;;;;;;5198687;28;20055;-68
2021/05/03 08:41:13;;;;;;;9.60;8.70;;;10.90;49.20;;;;;;5198839;28;20038;-67
2021/05/03 08:43:47;;;;;;;9.57;8.68;;;10.90;47.40;;;;;;5198722;28;20045;-68
2021/05/03 08:46:29;;;;;;;9.43;8.52;;;11.30;51.60;;;;;;5196062;28;20060;-68
2021/05/03 08:49:05;;;;;;;9.10;8.20;;;11.50;46.10;;;;;;5198275;28;20509;-68
2021/05/03 08:51:46;;;;;;;9.10;8.20;;;11.20;45.80;;;;;;5198056;28;20121;-68
2021/05/03 08:54:36;;;;;;;8.82;8.02;;;11.50;44.90;;;;;;5199333;28;20041;-69
2021/05/03 08:57:10;;;;;;;9.15;8.35;;;11.60;44.60;;;;;;5198933;28;20073;-67
2021/05/03 08:59:42;;;;;;;8.50;7.70;;;11.40;43.00;;;;;;5199043;28;20116;-67
2021/05/03 09:02:16;;;;;;;8.70;7.90;;;11.30;42.40;;;;;;5198376;28;20049;-68
2021/05/03 09:04:49;;;;;;;9.63;8.73;;;11.40;47.00;;;;;;5198131;28;20063;-71
2021/05/03 09:07:21;;;;;;;7.78;7.07;;;11.50;43.50;;;;;;5198740;28;20049;-69
2021/05/03 09:09:52;;;;;;;9.63;8.73;;;11.30;46.70;;;;;;5197612;28;20049;-68
2021/05/03 09:12:25;;;;;;;8.82;8.02;;;11.30;44.20;;;;;;5195983;28;20073;-69
2021/05/03 09:15:00;;;;;;;8.45;7.60;;;11.30;44.10;;;;;;5212631;28;20053;-67
2021/05/03 09:17:41;;;;;;;8.45;7.65;;;11.20;45.00;;;;;;5197686;28;20049;-68
2021/05/03 09:20:16;;;;;;;7.97;7.18;;;11.00;42.70;;;;;;5197817;28;20107;-67
2021/05/03 09:23:24;;;;;;;8.23;7.43;;;11.00;45.30;;;;;;5196219;28;20577;-69
2021/05/03 09:25:51;;;;;;;8.70;7.80;;;11.20;46.40;;;;;;5195607;28;20095;-69
2021/05/03 09:28:29;;;;;;;8.32;7.53;;;11.10;44.80;;;;;;5198881;28;20127;-69
2021/05/03 09:31:01;;;;;;;8.00;7.20;;;11.00;42.70;;;;;;5197390;28;20117;-69
2021/05/03 09:33:33;;;;;;;7.60;6.90;;;10.70;41.30;;;;;;5198717;28;20049;-68
